sensor_id;sensor_type;location;lat;lon;timestamp;temperature;humidity
21259;DHT22;10787;53.364;-1.480;2022-10-16T00:02:06;10.10;99.90
21259;DHT22;10787;53.364;-1.480;2022-10-16T00:04:31;10.10;99.90
21259;DHT22;10787;53.364;-1.480;2022-10-16T00:06:58;10.10;99.90
21259;DHT22;10787;53.364;-1.480;2022-10-16T00:09:23;10.10;99.90
21259;DHT22;10787;53.364;-1.480;2022-10-16T00:11:49;10.00;99.90
21259;DHT22;10787;53.364;-1.480;2022-10-16T00:14:16;10.10;99.90
21259;DHT22;10787;53.364;-1.480;2022-10-16T00:16:42;10.10;99.90
21259;DHT22;10787;53.364;-1.480;2022-10-16T00:19:09;10.10;99.90
21259;DHT22;10787;53.364;-1.480;2022-10-16T00:21:35;10.10;99.90
21259;DHT22;10787;53.364;-1.480;2022-10-16T00:24:07;10.10;99.90
21259;DHT22;10787;53.364;-1.480;2022-10-16T00:26:37;10.10;99.90
21259;DHT22;10787;53.364;-1.480;2022-10-16T00:29:04;10.20;99.90
21259;DHT22;10787;53.364;-1.480;2022-10-16T00:31:30;10.10;99.90
21259;DHT22;10787;53.364;-1.480;2022-10-16T00:33:56;10.20;99.90
21259;DHT22;10787;53.364;-1.480;2022-10-16T00:36:24;10.20;99.90
21259;DHT22;10787;53.364;-1.480;2022-10-16T00:38:52;10.30;99.90
21259;DHT22;10787;53.364;-1.480;2022-10-16T00:41:19;10.40;99.90
21259;DHT22;10787;53.364;-1.480;2022-10-16T00:43:48;10.40;99.90
21259;DHT22;10787;53.364;-1.480;2022-10-16T00:48:41;10.50;99.90
21259;DHT22;10787;53.364;-1.480;2022-10-16T00:51:08;10.50;99.90
21259;DHT22;10787;53.364;-1.480;2022-10-16T00:53:34;10.40;99.90
21259;DHT22;10787;53.364;-1.480;2022-10-16T00:56:02;10.40;99.90
21259;DHT22;10787;53.364;-1.480;2022-10-16T00:58:28;10.50;99.90
21259;DHT22;10787;53.364;-1.480;2022-10-16T01:00:53;10.50;99.90
21259;DHT22;10787;53.364;-1.480;2022-10-16T01:03:46;10.50;99.90
21259;DHT22;10787;53.364;-1.480;2022-10-16T01:06:16;10.50;99.90
21259;DHT22;10787;53.364;-1.480;2022-10-16T01:11:46;10.50;99.90
21259;DHT22;10787;53.364;-1.480;2022-10-16T01:15:17;10.40;99.90
21259;DHT22;10787;53.364;-1.480;2022-10-16T01:17:38;10.40;99.90
21259;DHT22;10787;53.364;-1.480;2022-10-16T01:26:05;10.50;99.90
21259;DHT22;10787;53.364;-1.480;2022-10-16T01:28:30;10.50;99.90
21259;DHT22;10787;53.364;-1.480;2022-10-16T01:31:00;10.50;99.90
21259;DHT22;10787;53.364;-1.480;2022-10-16T01:33:36;10.50;99.90
21259;DHT22;10787;53.364;-1.480;2022-10-16T01:36:10;10.50;99.90
21259;DHT22;10787;53.364;-1.480;2022-10-16T01:38:39;10.40;99.90
21259;DHT22;10787;53.364;-1.480;2022-10-16T01:41:27;10.40;99.90
21259;DHT22;10787;53.364;-1.480;2022-10-16T01:46:31;10.50;99.90
21259;DHT22;10787;53.364;-1.480;2022-10-16T01:49:00;10.50;99.90
21259;DHT22;10787;53.364;-1.480;2022-10-16T01:51:28;10.60;99.90
21259;DHT22;10787;53.364;-1.480;2022-10-16T01:53:57;10.50;99.90
21259;DHT22;10787;53.364;-1.480;2022-10-16T01:56:25;10.40;99.90
21259;DHT22;10787;53.364;-1.480;2022-10-16T01:59:02;10.20;99.90
21259;DHT22;10787;53.364;-1.480;2022-10-16T02:01:32;10.00;99.90
21259;DHT22;10787;53.364;-1.480;2022-10-16T02:04:16;9.90;99.90
21259;DHT22;10787;53.364;-1.480;2022-10-16T02:06:42;9.70;99.90
21259;DHT22;10787;53.364;-1.480;2022-10-16T02:09:09;9.70;99.90
21259;DHT22;10787;53.364;-1.480;2022-10-16T02:11:34;9.60;99.90
21259;DHT22;10787;53.364;-1.480;2022-10-16T02:14:07;9.60;99.90
21259;DHT22;10787;53.364;-1.480;2022-10-16T02:16:42;9.50;99.90
21259;DHT22;10787;53.364;-1.480;2022-10-16T02:19:08;9.60;99.90
21259;DHT22;10787;53.364;-1.480;2022-10-16T02:27:07;9.70;99.90
21259;DHT22;10787;53.364;-1.480;2022-10-16T02:29:39;9.70;99.90
21259;DHT22;10787;53.364;-1.480;2022-10-16T02:32:08;9.80;99.90
21259;DHT22;10787;53.364;-1.480;2022-10-16T02:34:34;9.80;99.90
21259;DHT22;10787;53.364;-1.480;2022-10-16T02:37:02;9.90;99.90
21259;DHT22;10787;53.364;-1.480;2022-10-16T02:39:29;10.00;99.90
21259;DHT22;10787;53.364;-1.480;2022-10-16T02:41:56;10.00;99.90
21259;DHT22;10787;53.364;-1.480;2022-10-16T02:44:22;9.90;99.90
21259;DHT22;10787;53.364;-1.480;2022-10-16T02:46:47;9.90;99.90
21259;DHT22;10787;53.364;-1.480;2022-10-16T02:49:13;9.90;99.90
21259;DHT22;10787;53.364;-1.480;2022-10-16T02:51:39;10.00;99.90
21259;DHT22;10787;53.364;-1.480;2022-10-16T02:54:05;10.00;99.90
21259;DHT22;10787;53.364;-1.480;2022-10-16T02:56:31;10.10;99.90
21259;DHT22;10787;53.364;-1.480;2022-10-16T02:58:57;10.10;99.90
21259;DHT22;10787;53.364;-1.480;2022-10-16T03:01:23;10.20;99.90
21259;DHT22;10787;53.364;-1.480;2022-10-16T03:03:49;10.20;99.90
21259;DHT22;10787;53.364;-1.480;2022-10-16T03:06:15;10.30;99.90
21259;DHT22;10787;53.364;-1.480;2022-10-16T03:08:42;10.20;99.90
21259;DHT22;10787;53.364;-1.480;2022-10-16T03:11:08;10.20;99.90
21259;DHT22;10787;53.364;-1.480;2022-10-16T03:13:34;10.30;99.90
21259;DHT22;10787;53.364;-1.480;2022-10-16T03:16:00;10.30;99.90
21259;DHT22;10787;53.364;-1.480;2022-10-16T03:18:25;10.30;99.90
21259;DHT22;10787;53.364;-1.480;2022-10-16T03:20:51;10.40;99.90
21259;DHT22;10787;53.364;-1.480;2022-10-16T03:23:17;10.40;99.90
21259;DHT22;10787;53.364;-1.480;2022-10-16T03:25:43;10.40;99.90
21259;DHT22;10787;53.364;-1.480;2022-10-16T03:28:08;10.40;99.90
21259;DHT22;10787;53.364;-1.480;2022-10-16T03:30:34;10.40;99.90
21259;DHT22;10787;53.364;-1.480;2022-10-16T03:33:00;10.40;99.90
21259;DHT22;10787;53.364;-1.480;2022-10-16T03:35:26;10.40;99.90
21259;DHT22;10787;53.364;-1.480;2022-10-16T03:37:52;10.40;99.90
21259;DHT22;10787;53.364;-1.480;2022-10-16T03:40:18;10.40;99.90
21259;DHT22;10787;53.364;-1.480;2022-10-16T03:42:44;10.30;99.90
21259;DHT22;10787;53.364;-1.480;2022-10-16T03:45:11;10.30;99.90
21259;DHT22;10787;53.364;-1.480;2022-10-16T03:47:37;10.30;99.90
21259;DHT22;10787;53.364;-1.480;2022-10-16T03:50:03;10.30;99.90
21259;DHT22;10787;53.364;-1.480;2022-10-16T03:52:29;10.30;99.90
21259;DHT22;10787;53.364;-1.480;2022-10-16T03:54:55;10.20;99.90
21259;DHT22;10787;53.364;-1.480;2022-10-16T03:57:21;10.20;99.90
21259;DHT22;10787;53.364;-1.480;2022-10-16T03:59:47;10.20;99.90
21259;DHT22;10787;53.364;-1.480;2022-10-16T04:02:13;10.10;99.90
21259;DHT22;10787;53.364;-1.480;2022-10-16T04:04:39;10.00;99.90
21259;DHT22;10787;53.364;-1.480;2022-10-16T04:07:05;10.00;99.90
21259;DHT22;10787;53.364;-1.480;2022-10-16T04:09:31;10.00;99.90
21259;DHT22;10787;53.364;-1.480;2022-10-16T04:11:57;10.00;99.90
21259;DHT22;10787;53.364;-1.480;2022-10-16T04:14:22;10.00;99.90
21259;DHT22;10787;53.364;-1.480;2022-10-16T04:16:48;10.00;99.90
21259;DHT22;10787;53.364;-1.480;2022-10-16T04:19:14;10.00;99.90
21259;DHT22;10787;53.364;-1.480;2022-10-16T04:21:40;10.00;99.90
21259;DHT22;10787;53.364;-1.480;2022-10-16T04:24:05;9.90;99.90
21259;DHT22;10787;53.364;-1.480;2022-10-16T04:26:31;9.80;99.90
21259;DHT22;10787;53.364;-1.480;2022-10-16T04:28:57;9.70;99.90
21259;DHT22;10787;53.364;-1.480;2022-10-16T04:31:24;9.70;99.90
21259;DHT22;10787;53.364;-1.480;2022-10-16T04:33:50;9.70;99.90
21259;DHT22;10787;53.364;-1.480;2022-10-16T04:36:16;9.60;99.90
21259;DHT22;10787;53.364;-1.480;2022-10-16T04:38:42;9.60;99.90
21259;DHT22;10787;53.364;-1.480;2022-10-16T04:41:08;9.50;99.90
21259;DHT22;10787;53.364;-1.480;2022-10-16T04:43:34;9.50;99.90
21259;DHT22;10787;53.364;-1.480;2022-10-16T04:46:00;9.40;99.90
21259;DHT22;10787;53.364;-1.480;2022-10-16T04:48:26;9.30;99.90
21259;DHT22;10787;53.364;-1.480;2022-10-16T04:50:52;9.30;99.90
21259;DHT22;10787;53.364;-1.480;2022-10-16T04:53:18;9.20;99.90
21259;DHT22;10787;53.364;-1.480;2022-10-16T04:55:44;9.10;99.90
21259;DHT22;10787;53.364;-1.480;2022-10-16T04:58:10;9.10;99.90
21259;DHT22;10787;53.364;-1.480;2022-10-16T05:00:36;9.00;99.90
21259;DHT22;10787;53.364;-1.480;2022-10-16T05:03:02;9.00;99.90
21259;DHT22;10787;53.364;-1.480;2022-10-16T05:05:31;8.90;99.90
21259;DHT22;10787;53.364;-1.480;2022-10-16T05:07:58;8.90;99.90
21259;DHT22;10787;53.364;-1.480;2022-10-16T05:10:23;8.90;99.90
21259;DHT22;10787;53.364;-1.480;2022-10-16T05:12:49;8.90;99.90
21259;DHT22;10787;53.364;-1.480;2022-10-16T05:15:17;8.80;99.90
21259;DHT22;10787;53.364;-1.480;2022-10-16T05:17:43;8.80;99.90
21259;DHT22;10787;53.364;-1.480;2022-10-16T05:20:08;8.80;99.90
21259;DHT22;10787;53.364;-1.480;2022-10-16T05:22:34;8.70;99.90
21259;DHT22;10787;53.364;-1.480;2022-10-16T05:25:00;8.70;99.90
21259;DHT22;10787;53.364;-1.480;2022-10-16T05:27:26;8.60;99.90
21259;DHT22;10787;53.364;-1.480;2022-10-16T05:29:52;8.60;99.90
21259;DHT22;10787;53.364;-1.480;2022-10-16T05:32:18;8.60;99.90
21259;DHT22;10787;53.364;-1.480;2022-10-16T05:34:45;8.60;99.90
21259;DHT22;10787;53.364;-1.480;2022-10-16T05:37:11;8.50;99.90
21259;DHT22;10787;53.364;-1.480;2022-10-16T05:39:38;8.50;99.90
21259;DHT22;10787;53.364;-1.480;2022-10-16T05:42:05;8.50;99.90
21259;DHT22;10787;53.364;-1.480;2022-10-16T05:44:31;8.40;99.90
21259;DHT22;10787;53.364;-1.480;2022-10-16T05:46:58;8.40;99.90
21259;DHT22;10787;53.364;-1.480;2022-10-16T05:49:24;8.40;99.90
21259;DHT22;10787;53.364;-1.480;2022-10-16T05:51:49;8.40;99.90
21259;DHT22;10787;53.364;-1.480;2022-10-16T05:54:16;8.30;99.90
21259;DHT22;10787;53.364;-1.480;2022-10-16T05:56:42;8.30;99.90
21259;DHT22;10787;53.364;-1.480;2022-10-16T05:59:08;8.30;99.90
21259;DHT22;10787;53.364;-1.480;2022-10-16T06:01:33;8.30;99.90
21259;DHT22;10787;53.364;-1.480;2022-10-16T06:04:01;8.20;99.90
21259;DHT22;10787;53.364;-1.480;2022-10-16T06:06:27;8.20;99.90
21259;DHT22;10787;53.364;-1.480;2022-10-16T06:08:55;8.10;99.90
21259;DHT22;10787;53.364;-1.480;2022-10-16T06:11:27;8.10;99.90
21259;DHT22;10787;53.364;-1.480;2022-10-16T06:13:55;8.10;99.90
21259;DHT22;10787;53.364;-1.480;2022-10-16T06:16:26;8.00;99.90
21259;DHT22;10787;53.364;-1.480;2022-10-16T06:18:53;8.00;99.90
21259;DHT22;10787;53.364;-1.480;2022-10-16T06:21:21;8.00;99.90
21259;DHT22;10787;53.364;-1.480;2022-10-16T06:23:48;8.00;99.90
21259;DHT22;10787;53.364;-1.480;2022-10-16T06:26:16;8.00;99.90
21259;DHT22;10787;53.364;-1.480;2022-10-16T06:28:42;7.90;99.90
21259;DHT22;10787;53.364;-1.480;2022-10-16T06:31:10;7.90;99.90
21259;DHT22;10787;53.364;-1.480;2022-10-16T06:33:36;7.90;99.90
21259;DHT22;10787;53.364;-1.480;2022-10-16T06:36:09;7.90;99.90
21259;DHT22;10787;53.364;-1.480;2022-10-16T06:38:37;7.80;99.90
21259;DHT22;10787;53.364;-1.480;2022-10-16T06:41:03;7.80;99.90
21259;DHT22;10787;53.364;-1.480;2022-10-16T06:43:30;7.80;99.90
21259;DHT22;10787;53.364;-1.480;2022-10-16T06:46:03;7.80;99.90
21259;DHT22;10787;53.364;-1.480;2022-10-16T06:48:29;7.80;99.90
21259;DHT22;10787;53.364;-1.480;2022-10-16T06:53:36;7.80;99.90
21259;DHT22;10787;53.364;-1.480;2022-10-16T06:56:08;7.80;99.90
21259;DHT22;10787;53.364;-1.480;2022-10-16T06:58:34;7.80;99.90
21259;DHT22;10787;53.364;-1.480;2022-10-16T07:01:00;7.90;99.90
21259;DHT22;10787;53.364;-1.480;2022-10-16T07:03:26;8.00;99.90
21259;DHT22;10787;53.364;-1.480;2022-10-16T07:05:52;8.00;99.90
21259;DHT22;10787;53.364;-1.480;2022-10-16T07:08:18;8.00;99.90
21259;DHT22;10787;53.364;-1.480;2022-10-16T07:10:44;8.10;99.90
21259;DHT22;10787;53.364;-1.480;2022-10-16T07:13:10;8.10;99.90
21259;DHT22;10787;53.364;-1.480;2022-10-16T07:15:39;8.10;99.90
21259;DHT22;10787;53.364;-1.480;2022-10-16T07:18:06;8.20;99.90
21259;DHT22;10787;53.364;-1.480;2022-10-16T07:20:32;8.20;99.90
21259;DHT22;10787;53.364;-1.480;2022-10-16T07:22:58;8.20;99.90
21259;DHT22;10787;53.364;-1.480;2022-10-16T07:25:24;8.20;99.90
21259;DHT22;10787;53.364;-1.480;2022-10-16T07:27:51;8.30;99.90
21259;DHT22;10787;53.364;-1.480;2022-10-16T07:30:17;8.30;99.90
21259;DHT22;10787;53.364;-1.480;2022-10-16T07:32:43;8.30;99.90
21259;DHT22;10787;53.364;-1.480;2022-10-16T07:35:08;8.30;99.90
21259;DHT22;10787;53.364;-1.480;2022-10-16T07:37:34;8.40;99.90
21259;DHT22;10787;53.364;-1.480;2022-10-16T07:40:00;8.40;99.90
21259;DHT22;10787;53.364;-1.480;2022-10-16T07:42:27;8.40;99.90
21259;DHT22;10787;53.364;-1.480;2022-10-16T07:44:53;8.40;99.90
21259;DHT22;10787;53.364;-1.480;2022-10-16T07:47:18;8.40;99.90
21259;DHT22;10787;53.364;-1.480;2022-10-16T07:49:44;8.40;99.90
21259;DHT22;10787;53.364;-1.480;2022-10-16T07:52:10;8.50;99.90
21259;DHT22;10787;53.364;-1.480;2022-10-16T07:54:36;8.60;99.90
21259;DHT22;10787;53.364;-1.480;2022-10-16T07:57:02;8.70;99.90
21259;DHT22;10787;53.364;-1.480;2022-10-16T07:59:28;8.70;99.90
21259;DHT22;10787;53.364;-1.480;2022-10-16T08:01:54;8.80;99.90
21259;DHT22;10787;53.364;-1.480;2022-10-16T08:04:20;8.90;99.90
21259;DHT22;10787;53.364;-1.480;2022-10-16T08:06:46;9.00;99.90
21259;DHT22;10787;53.364;-1.480;2022-10-16T08:09:12;9.10;99.90
21259;DHT22;10787;53.364;-1.480;2022-10-16T08:11:37;9.20;99.90
21259;DHT22;10787;53.364;-1.480;2022-10-16T08:14:03;9.20;99.90
21259;DHT22;10787;53.364;-1.480;2022-10-16T08:16:29;9.30;99.90
21259;DHT22;10787;53.364;-1.480;2022-10-16T08:18:55;9.40;99.90
21259;DHT22;10787;53.364;-1.480;2022-10-16T08:21:22;9.50;99.90
21259;DHT22;10787;53.364;-1.480;2022-10-16T08:23:49;9.50;99.90
21259;DHT22;10787;53.364;-1.480;2022-10-16T08:26:16;9.60;99.90
21259;DHT22;10787;53.364;-1.480;2022-10-16T08:28:42;9.60;99.90
21259;DHT22;10787;53.364;-1.480;2022-10-16T08:31:15;9.70;99.90
21259;DHT22;10787;53.364;-1.480;2022-10-16T08:33:42;9.80;99.90
21259;DHT22;10787;53.364;-1.480;2022-10-16T08:36:10;9.80;99.90
21259;DHT22;10787;53.364;-1.480;2022-10-16T08:38:36;9.90;99.90
21259;DHT22;10787;53.364;-1.480;2022-10-16T08:47:02;10.10;99.90
21259;DHT22;10787;53.364;-1.480;2022-10-16T08:49:33;10.10;99.90
21259;DHT22;10787;53.364;-1.480;2022-10-16T08:51:59;10.20;99.90
21259;DHT22;10787;53.364;-1.480;2022-10-16T08:54:34;10.30;99.90
21259;DHT22;10787;53.364;-1.480;2022-10-16T08:57:25;10.40;99.90
21259;DHT22;10787;53.364;-1.480;2022-10-16T08:59:53;10.40;99.90
21259;DHT22;10787;53.364;-1.480;2022-10-16T09:02:39;10.50;99.90
21259;DHT22;10787;53.364;-1.480;2022-10-16T09:05:41;10.60;99.90
21259;DHT22;10787;53.364;-1.480;2022-10-16T09:08:16;10.60;99.90
21259;DHT22;10787;53.364;-1.480;2022-10-16T09:16:30;10.90;99.90
21259;DHT22;10787;53.364;-1.480;2022-10-16T09:19:13;10.90;99.90
21259;DHT22;10787;53.364;-1.480;2022-10-16T09:21:44;11.00;99.90
21259;DHT22;10787;53.364;-1.480;2022-10-16T09:24:12;11.00;99.90
21259;DHT22;10787;53.364;-1.480;2022-10-16T09:26:39;11.10;99.90
21259;DHT22;10787;53.364;-1.480;2022-10-16T09:29:04;11.20;99.90
21259;DHT22;10787;53.364;-1.480;2022-10-16T09:31:30;11.30;99.90
21259;DHT22;10787;53.364;-1.480;2022-10-16T09:33:59;11.40;99.90
21259;DHT22;10787;53.364;-1.480;2022-10-16T09:36:28;11.40;99.90
21259;DHT22;10787;53.364;-1.480;2022-10-16T09:39:08;11.40;99.90
21259;DHT22;10787;53.364;-1.480;2022-10-16T09:41:37;11.50;99.90
21259;DHT22;10787;53.364;-1.480;2022-10-16T09:44:12;11.60;99.90
21259;DHT22;10787;53.364;-1.480;2022-10-16T09:46:42;11.70;99.90
21259;DHT22;10787;53.364;-1.480;2022-10-16T09:49:23;11.90;99.90
21259;DHT22;10787;53.364;-1.480;2022-10-16T09:51:50;12.00;99.90
21259;DHT22;10787;53.364;-1.480;2022-10-16T09:54:17;12.10;99.90
21259;DHT22;10787;53.364;-1.480;2022-10-16T09:56:43;12.30;99.90
21259;DHT22;10787;53.364;-1.480;2022-10-16T09:59:12;12.40;99.90
21259;DHT22;10787;53.364;-1.480;2022-10-16T10:01:39;12.50;99.90
21259;DHT22;10787;53.364;-1.480;2022-10-16T10:04:06;12.60;99.90
21259;DHT22;10787;53.364;-1.480;2022-10-16T10:06:41;12.80;99.90
21259;DHT22;10787;53.364;-1.480;2022-10-16T10:09:31;13.00;99.90
21259;DHT22;10787;53.364;-1.480;2022-10-16T10:12:02;13.00;99.90
21259;DHT22;10787;53.364;-1.480;2022-10-16T10:14:39;13.20;99.90
21259;DHT22;10787;53.364;-1.480;2022-10-16T10:30:57;13.20;99.90
21259;DHT22;10787;53.364;-1.480;2022-10-16T10:33:42;13.00;99.90
21259;DHT22;10787;53.364;-1.480;2022-10-16T10:39:00;12.80;99.90
21259;DHT22;10787;53.364;-1.480;2022-10-16T10:46:51;12.90;99.90
21259;DHT22;10787;53.364;-1.480;2022-10-16T10:52:56;12.90;99.90
21259;DHT22;10787;53.364;-1.480;2022-10-16T10:55:46;13.00;99.90
21259;DHT22;10787;53.364;-1.480;2022-10-16T11:06:39;13.10;99.90
21259;DHT22;10787;53.364;-1.480;2022-10-16T11:09:25;13.20;99.90
21259;DHT22;10787;53.364;-1.480;2022-10-16T11:11:54;13.20;99.90
21259;DHT22;10787;53.364;-1.480;2022-10-16T11:17:27;13.50;99.90
21259;DHT22;10787;53.364;-1.480;2022-10-16T11:20:05;13.50;99.90
21259;DHT22;10787;53.364;-1.480;2022-10-16T11:22:41;13.70;99.90
21259;DHT22;10787;53.364;-1.480;2022-10-16T11:25:22;13.70;99.90
21259;DHT22;10787;53.364;-1.480;2022-10-16T11:30:54;14.50;99.90
21259;DHT22;10787;53.364;-1.480;2022-10-16T11:33:32;15.40;99.90
21259;DHT22;10787;53.364;-1.480;2022-10-16T11:47:18;20.30;99.90
21259;DHT22;10787;53.364;-1.480;2022-10-16T11:49:47;20.40;99.90
21259;DHT22;10787;53.364;-1.480;2022-10-16T11:52:36;20.60;99.90
21259;DHT22;10787;53.364;-1.480;2022-10-16T11:55:15;21.00;99.90
21259;DHT22;10787;53.364;-1.480;2022-10-16T11:57:49;21.80;99.90
21259;DHT22;10787;53.364;-1.480;2022-10-16T12:00:31;22.80;99.90
21259;DHT22;10787;53.364;-1.480;2022-10-16T12:03:09;23.30;99.90
21259;DHT22;10787;53.364;-1.480;2022-10-16T12:08:35;24.70;99.90
21259;DHT22;10787;53.364;-1.480;2022-10-16T12:14:59;24.40;99.90
21259;DHT22;10787;53.364;-1.480;2022-10-16T12:16:53;24.70;99.90
21259;DHT22;10787;53.364;-1.480;2022-10-16T12:19:20;25.40;99.90
21259;DHT22;10787;53.364;-1.480;2022-10-16T12:21:48;25.70;99.90
21259;DHT22;10787;53.364;-1.480;2022-10-16T12:24:34;25.90;99.90
21259;DHT22;10787;53.364;-1.480;2022-10-16T12:27:27;26.20;99.90
21259;DHT22;10787;53.364;-1.480;2022-10-16T12:29:57;26.20;99.90
21259;DHT22;10787;53.364;-1.480;2022-10-16T12:32:43;25.30;99.90
21259;DHT22;10787;53.364;-1.480;2022-10-16T12:35:21;23.90;99.90
21259;DHT22;10787;53.364;-1.480;2022-10-16T12:37:48;22.40;99.90
21259;DHT22;10787;53.364;-1.480;2022-10-16T12:40:26;21.60;99.90
21259;DHT22;10787;53.364;-1.480;2022-10-16T12:42:52;20.40;99.90
21259;DHT22;10787;53.364;-1.480;2022-10-16T12:45:32;19.40;99.90
21259;DHT22;10787;53.364;-1.480;2022-10-16T12:48:01;19.40;99.90
21259;DHT22;10787;53.364;-1.480;2022-10-16T12:50:36;19.20;99.90
21259;DHT22;10787;53.364;-1.480;2022-10-16T12:53:16;19.30;99.90
21259;DHT22;10787;53.364;-1.480;2022-10-16T12:56:34;19.20;99.90
21259;DHT22;10787;53.364;-1.480;2022-10-16T12:59:09;18.80;99.90
21259;DHT22;10787;53.364;-1.480;2022-10-16T13:20:55;20.90;99.90
21259;DHT22;10787;53.364;-1.480;2022-10-16T13:29:01;22.20;99.90
21259;DHT22;10787;53.364;-1.480;2022-10-16T13:31:28;22.30;99.90
21259;DHT22;10787;53.364;-1.480;2022-10-16T13:33:57;22.10;99.90
21259;DHT22;10787;53.364;-1.480;2022-10-16T13:36:33;21.50;99.90
21259;DHT22;10787;53.364;-1.480;2022-10-16T13:39:25;20.60;99.90
21259;DHT22;10787;53.364;-1.480;2022-10-16T13:42:04;19.70;99.90
21259;DHT22;10787;53.364;-1.480;2022-10-16T13:44:40;18.70;99.90
21259;DHT22;10787;53.364;-1.480;2022-10-16T13:47:28;17.90;99.90
21259;DHT22;10787;53.364;-1.480;2022-10-16T13:50:05;17.50;99.90
21259;DHT22;10787;53.364;-1.480;2022-10-16T13:52:32;17.30;99.90
21259;DHT22;10787;53.364;-1.480;2022-10-16T13:54:58;17.20;99.90
21259;DHT22;10787;53.364;-1.480;2022-10-16T13:57:24;17.50;99.90
21259;DHT22;10787;53.364;-1.480;2022-10-16T13:59:51;18.50;99.90
21259;DHT22;10787;53.364;-1.480;2022-10-16T14:04:55;21.40;99.90
21259;DHT22;10787;53.364;-1.480;2022-10-16T14:07:28;22.40;99.90
21259;DHT22;10787;53.364;-1.480;2022-10-16T14:09:56;23.30;99.90
21259;DHT22;10787;53.364;-1.480;2022-10-16T14:12:26;24.40;99.90
21259;DHT22;10787;53.364;-1.480;2022-10-16T14:14:54;24.70;99.90
21259;DHT22;10787;53.364;-1.480;2022-10-16T14:17:27;25.10;99.90
21259;DHT22;10787;53.364;-1.480;2022-10-16T14:19:57;26.10;99.90
21259;DHT22;10787;53.364;-1.480;2022-10-16T14:22:40;25.80;99.90
21259;DHT22;10787;53.364;-1.480;2022-10-16T14:27:45;24.00;99.90
21259;DHT22;10787;53.364;-1.480;2022-10-16T14:30:22;22.70;99.90
21259;DHT22;10787;53.364;-1.480;2022-10-16T14:32:59;21.80;99.90
21259;DHT22;10787;53.364;-1.480;2022-10-16T14:35:33;20.80;99.90
21259;DHT22;10787;53.364;-1.480;2022-10-16T14:38:00;20.20;99.90
21259;DHT22;10787;53.364;-1.480;2022-10-16T14:40:29;19.60;99.90
21259;DHT22;10787;53.364;-1.480;2022-10-16T14:42:56;19.30;99.90
21259;DHT22;10787;53.364;-1.480;2022-10-16T14:45:24;19.70;99.90
21259;DHT22;10787;53.364;-1.480;2022-10-16T14:47:57;19.80;99.90
21259;DHT22;10787;53.364;-1.480;2022-10-16T14:50:23;19.40;99.90
21259;DHT22;10787;53.364;-1.480;2022-10-16T14:52:49;19.10;99.90
21259;DHT22;10787;53.364;-1.480;2022-10-16T14:55:15;18.80;99.90
21259;DHT22;10787;53.364;-1.480;2022-10-16T14:57:42;18.30;99.90
21259;DHT22;10787;53.364;-1.480;2022-10-16T15:00:23;17.80;99.90
21259;DHT22;10787;53.364;-1.480;2022-10-16T15:02:49;17.40;99.90
21259;DHT22;10787;53.364;-1.480;2022-10-16T15:05:25;17.20;99.90
21259;DHT22;10787;53.364;-1.480;2022-10-16T15:07:52;16.90;99.90
21259;DHT22;10787;53.364;-1.480;2022-10-16T15:10:23;16.90;99.90
21259;DHT22;10787;53.364;-1.480;2022-10-16T15:12:49;16.90;99.90
21259;DHT22;10787;53.364;-1.480;2022-10-16T15:15:51;16.70;99.90
21259;DHT22;10787;53.364;-1.480;2022-10-16T15:18:19;16.70;99.90
21259;DHT22;10787;53.364;-1.480;2022-10-16T15:20:48;16.80;99.90
21259;DHT22;10787;53.364;-1.480;2022-10-16T15:23:17;16.60;99.90
21259;DHT22;10787;53.364;-1.480;2022-10-16T15:25:51;16.60;99.90
21259;DHT22;10787;53.364;-1.480;2022-10-16T15:28:18;16.60;99.90
21259;DHT22;10787;53.364;-1.480;2022-10-16T15:30:45;16.80;99.90
21259;DHT22;10787;53.364;-1.480;2022-10-16T15:33:15;17.10;99.90
21259;DHT22;10787;53.364;-1.480;2022-10-16T15:35:41;17.60;99.90
21259;DHT22;10787;53.364;-1.480;2022-10-16T15:38:12;18.00;99.90
21259;DHT22;10787;53.364;-1.480;2022-10-16T15:40:40;18.10;99.90
21259;DHT22;10787;53.364;-1.480;2022-10-16T15:43:06;18.20;99.90
21259;DHT22;10787;53.364;-1.480;2022-10-16T15:45:33;18.00;99.90
21259;DHT22;10787;53.364;-1.480;2022-10-16T15:47:58;17.70;99.90
21259;DHT22;10787;53.364;-1.480;2022-10-16T15:50:24;17.30;99.90
21259;DHT22;10787;53.364;-1.480;2022-10-16T15:52:51;17.10;99.90
21259;DHT22;10787;53.364;-1.480;2022-10-16T15:55:17;16.90;99.90
21259;DHT22;10787;53.364;-1.480;2022-10-16T15:57:44;16.50;99.90
21259;DHT22;10787;53.364;-1.480;2022-10-16T16:00:16;16.30;99.90
21259;DHT22;10787;53.364;-1.480;2022-10-16T16:02:44;16.00;99.90
21259;DHT22;10787;53.364;-1.480;2022-10-16T16:05:15;15.90;99.90
21259;DHT22;10787;53.364;-1.480;2022-10-16T16:07:40;15.80;99.90
21259;DHT22;10787;53.364;-1.480;2022-10-16T16:10:08;15.80;99.90
21259;DHT22;10787;53.364;-1.480;2022-10-16T16:12:35;15.60;99.90
21259;DHT22;10787;53.364;-1.480;2022-10-16T16:15:02;15.40;99.90
21259;DHT22;10787;53.364;-1.480;2022-10-16T16:17:30;15.30;99.90
21259;DHT22;10787;53.364;-1.480;2022-10-16T16:19:56;15.10;99.90
21259;DHT22;10787;53.364;-1.480;2022-10-16T16:22:22;15.00;99.90
21259;DHT22;10787;53.364;-1.480;2022-10-16T16:24:48;14.90;99.90
21259;DHT22;10787;53.364;-1.480;2022-10-16T16:27:15;14.80;99.90
21259;DHT22;10787;53.364;-1.480;2022-10-16T16:29:41;14.70;99.90
21259;DHT22;10787;53.364;-1.480;2022-10-16T16:32:07;14.60;99.90
21259;DHT22;10787;53.364;-1.480;2022-10-16T16:34:33;14.50;99.90
21259;DHT22;10787;53.364;-1.480;2022-10-16T16:36:59;14.50;99.90
21259;DHT22;10787;53.364;-1.480;2022-10-16T16:39:25;14.40;99.90
21259;DHT22;10787;53.364;-1.480;2022-10-16T16:41:51;14.30;99.90
21259;DHT22;10787;53.364;-1.480;2022-10-16T16:44:17;14.30;99.90
21259;DHT22;10787;53.364;-1.480;2022-10-16T16:46:44;14.20;99.90
21259;DHT22;10787;53.364;-1.480;2022-10-16T16:49:13;14.20;99.90
21259;DHT22;10787;53.364;-1.480;2022-10-16T16:51:40;14.10;99.90
21259;DHT22;10787;53.364;-1.480;2022-10-16T16:54:07;14.10;99.90
21259;DHT22;10787;53.364;-1.480;2022-10-16T16:56:33;14.00;99.90
21259;DHT22;10787;53.364;-1.480;2022-10-16T16:58:59;13.90;99.90
21259;DHT22;10787;53.364;-1.480;2022-10-16T17:01:26;13.90;99.90
21259;DHT22;10787;53.364;-1.480;2022-10-16T17:03:54;13.80;99.90
21259;DHT22;10787;53.364;-1.480;2022-10-16T17:06:23;13.70;99.90
21259;DHT22;10787;53.364;-1.480;2022-10-16T17:08:49;13.60;99.90
21259;DHT22;10787;53.364;-1.480;2022-10-16T17:11:18;13.60;99.90
21259;DHT22;10787;53.364;-1.480;2022-10-16T17:13:44;13.60;99.90
21259;DHT22;10787;53.364;-1.480;2022-10-16T17:16:10;13.50;99.90
21259;DHT22;10787;53.364;-1.480;2022-10-16T17:18:36;13.50;99.90
21259;DHT22;10787;53.364;-1.480;2022-10-16T17:21:06;13.50;99.90
21259;DHT22;10787;53.364;-1.480;2022-10-16T17:23:32;13.40;99.90
21259;DHT22;10787;53.364;-1.480;2022-10-16T17:26:12;13.40;99.90
21259;DHT22;10787;53.364;-1.480;2022-10-16T17:28:39;13.40;99.90
21259;DHT22;10787;53.364;-1.480;2022-10-16T17:31:26;13.30;99.90
21259;DHT22;10787;53.364;-1.480;2022-10-16T17:33:52;13.30;99.90
21259;DHT22;10787;53.364;-1.480;2022-10-16T17:36:18;13.20;99.90